Time;durP1;ratioP1;P1;durP2;ratioP2;P2;SDS_P1;SDS_P2;PMS_P1;PMS_P2;Temp;Humidity;BMP_temperature;BMP_pressure;BME280_temperature;BME280_humidity;BME280_pressure;Samples;Min_cycle;Max_cycle;Signal;HPM_P1;HPM_P2
2023/04/20 00:00:10;;;;;;;2.30;2.20;;;10.20;81.70;;;;;;5054290;28;20194;-74
2023/04/20 00:02:37;;;;;;;5.38;2.55;;;10.30;81.90;;;;;;5052040;28;20187;-72
2023/04/20 00:05:10;;;;;;;2.58;2.47;;;10.30;81.90;;;;;;5054980;28;20172;-73
2023/04/20 00:07:36;;;;;;;2.03;1.95;;;10.20;81.60;;;;;;5049871;28;20293;-73
2023/04/20 00:10:02;;;;;;;2.13;2.03;;;10.20;81.70;;;;;;5055781;28;20324;-72
2023/04/20 00:12:28;;;;;;;2.42;2.33;;;10.20;81.90;;;;;;5052962;28;20285;-74
2023/04/20 00:14:54;;;;;;;2.10;2.00;;;10.20;81.90;;;;;;5051265;28;20293;-73
2023/04/20 00:17:20;;;;;;;1.95;1.85;;;10.20;82.00;;;;;;5051792;28;20874;-73
2023/04/20 00:19:47;;;;;;;2.42;2.33;;;10.20;82.10;;;;;;5052835;28;20191;-72
2023/04/20 00:22:12;;;;;;;2.17;2.08;;;10.20;82.30;;;;;;5054894;28;20277;-73
2023/04/20 00:24:38;;;;;;;2.67;2.47;;;10.20;82.40;;;;;;5052627;28;20245;-73
2023/04/20 00:27:04;;;;;;;2.38;2.17;;;10.20;82.40;;;;;;5054128;28;20271;-73
2023/04/20 00:29:30;;;;;;;2.75;2.55;;;10.30;82.40;;;;;;5055398;28;20179;-73
2023/04/20 00:31:55;;;;;;;2.70;2.50;;;10.30;81.90;;;;;;5055129;28;20342;-73
2023/04/20 00:34:21;;;;;;;2.97;2.78;;;10.30;82.00;;;;;;5055362;28;20270;-73
2023/04/20 00:36:47;;;;;;;2.97;2.78;;;10.40;81.90;;;;;;5060952;28;20178;-73
2023/04/20 00:39:13;;;;;;;4.63;2.85;;;10.40;81.80;;;;;;5056169;28;20179;-75
2023/04/20 00:41:38;;;;;;;2.90;2.65;;;10.50;81.90;;;;;;5052698;28;20302;-73
2023/04/20 00:44:06;;;;;;;2.60;2.50;;;10.50;82.00;;;;;;5053862;28;20253;-75
2023/04/20 00:46:32;;;;;;;2.95;2.80;;;10.60;81.90;;;;;;5046623;28;20187;-73
2023/04/20 00:48:58;;;;;;;2.88;2.78;;;10.50;82.20;;;;;;5057220;28;20631;-73
2023/04/20 00:51:24;;;;;;;2.20;2.10;;;10.40;82.70;;;;;;5059185;28;20197;-74
2023/04/20 00:53:50;;;;;;;2.22;2.13;;;10.50;82.40;;;;;;5051031;28;20183;-73
2023/04/20 00:56:16;;;;;;;2.00;2.00;;;10.50;82.10;;;;;;5049640;28;20191;-73
2023/04/20 00:58:42;;;;;;;2.35;2.25;;;10.60;82.00;;;;;;5054465;28;20183;-73
2023/04/20 01:01:09;;;;;;;1.83;1.77;;;10.60;82.00;;;;;;5051136;28;20242;-73
2023/04/20 01:03:35;;;;;;;2.38;2.28;;;10.70;81.90;;;;;;5050462;28;20230;-74
2023/04/20 01:06:01;;;;;;;2.35;2.25;;;10.60;82.00;;;;;;5052502;28;20634;-72
2023/04/20 01:08:27;;;;;;;2.67;2.58;;;10.60;82.20;;;;;;5053247;28;20646;-73
2023/04/20 01:10:56;;;;;;;2.78;2.60;;;10.40;82.60;;;;;;5053100;28;20189;-72
2023/04/20 01:13:22;;;;;;;2.72;2.63;;;10.40;83.00;;;;;;5054491;28;20207;-73
2023/04/20 01:15:48;;;;;;;2.40;2.30;;;10.30;83.60;;;;;;5050687;28;20183;-74
2023/04/20 01:18:16;;;;;;;2.53;2.42;;;10.30;83.80;;;;;;5056066;28;20264;-75
2023/04/20 01:20:42;;;;;;;2.70;2.58;;;10.30;83.70;;;;;;5053076;28;20222;-74
2023/04/20 01:23:08;;;;;;;4.00;2.45;;;10.40;83.80;;;;;;5050849;28;20190;-74
2023/04/20 01:25:34;;;;;;;2.40;2.30;;;10.40;83.50;;;;;;5052916;28;21483;-74
2023/04/20 01:28:00;;;;;;;2.28;2.17;;;10.40;83.60;;;;;;5054164;28;21498;-74
2023/04/20 01:30:26;;;;;;;3.00;2.80;;;10.30;83.50;;;;;;5049976;28;20536;-74
2023/04/20 01:32:52;;;;;;;2.63;2.30;;;10.20;84.00;;;;;;5053540;28;20190;-73
2023/04/20 01:35:18;;;;;;;2.72;2.53;;;10.20;84.20;;;;;;5054173;28;20175;-74
2023/04/20 01:37:43;;;;;;;2.13;2.03;;;10.10;84.30;;;;;;5049681;28;20179;-73
2023/04/20 01:40:11;;;;;;;2.28;2.17;;;10.20;84.30;;;;;;5050762;28;20186;-73
2023/04/20 01:42:37;;;;;;;2.00;1.90;;;10.10;84.20;;;;;;5048418;28;20172;-72
2023/04/20 01:45:05;;;;;;;2.40;2.30;;;10.10;84.20;;;;;;5047059;28;20211;-74
2023/04/20 01:47:31;;;;;;;2.60;2.50;;;10.20;83.90;;;;;;5042091;28;20234;-73
2023/04/20 01:49:56;;;;;;;4.13;2.28;;;10.20;84.20;;;;;;5049428;28;20582;-74
2023/04/20 01:52:22;;;;;;;3.22;3.03;;;10.10;84.50;;;;;;5048936;28;20194;-74
2023/04/20 01:54:48;;;;;;;2.58;2.45;;;10.10;84.50;;;;;;5053137;28;20190;-74
2023/04/20 01:57:14;;;;;;;2.45;2.35;;;10.00;84.80;;;;;;5050615;28;20660;-74
2023/04/20 01:59:39;;;;;;;3.65;2.67;;;9.90;85.20;;;;;;5052880;28;20179;-74
2023/04/20 02:02:05;;;;;;;2.08;1.98;;;9.80;85.40;;;;;;5049972;28;20211;-73
2023/04/20 02:04:31;;;;;;;2.10;2.08;;;9.80;85.50;;;;;;5054140;28;20172;-73
2023/04/20 02:06:57;;;;;;;2.60;2.45;;;9.70;86.00;;;;;;5052913;28;20186;-73
2023/04/20 02:09:22;;;;;;;2.92;2.67;;;9.70;85.80;;;;;;5047809;28;20235;-73
2023/04/20 02:11:48;;;;;;;4.82;1.88;;;9.70;85.50;;;;;;5046334;28;20275;-73
2023/04/20 02:14:14;;;;;;;2.75;2.58;;;9.70;85.90;;;;;;5049741;28;20175;-73
2023/04/20 02:16:41;;;;;;;2.85;2.60;;;9.60;86.40;;;;;;5048517;28;20180;-74
2023/04/20 02:19:07;;;;;;;2.28;2.13;;;9.70;86.30;;;;;;5044366;28;20293;-73
2023/04/20 02:21:33;;;;;;;1.92;1.92;;;9.60;86.40;;;;;;5048858;28;20203;-73
2023/04/20 02:23:59;;;;;;;1.92;1.83;;;9.70;86.10;;;;;;5049479;28;20674;-73
2023/04/20 02:26:25;;;;;;;2.15;2.05;;;9.70;86.00;;;;;;5053988;28;20286;-74
2023/04/20 02:28:51;;;;;;;2.55;2.40;;;9.90;85.80;;;;;;5046890;28;20680;-74
2023/04/20 02:31:16;;;;;;;2.50;2.40;;;9.90;85.80;;;;;;5050041;28;20194;-73
2023/04/20 02:33:43;;;;;;;2.13;2.05;;;9.90;85.60;;;;;;5052363;28;20171;-74
2023/04/20 02:36:08;;;;;;;2.33;2.22;;;10.00;85.20;;;;;;5054255;28;20178;-74
2023/04/20 02:38:34;;;;;;;2.40;2.30;;;10.10;84.90;;;;;;5056497;28;20278;-73
2023/04/20 02:41:00;;;;;;;2.17;2.08;;;10.20;84.90;;;;;;5049658;28;20297;-74
2023/04/20 02:43:25;;;;;;;2.17;1.98;;;10.20;85.00;;;;;;5050213;28;20606;-74
2023/04/20 02:45:51;;;;;;;2.55;2.45;;;10.30;84.70;;;;;;5052276;28;20193;-71
2023/04/20 02:48:17;;;;;;;2.35;2.25;;;10.40;84.30;;;;;;5045924;28;20175;-74
2023/04/20 02:50:43;;;;;;;2.47;2.38;;;10.40;84.20;;;;;;5053301;28;20186;-73
2023/04/20 02:53:09;;;;;;;3.97;2.40;;;10.40;84.30;;;;;;5047821;28;20317;-74
2023/04/20 02:55:34;;;;;;;2.40;2.30;;;10.50;84.30;;;;;;5047836;28;20195;-74
2023/04/20 02:58:00;;;;;;;2.25;2.15;;;10.50;84.00;;;;;;5051165;28;20172;-74
2023/04/20 03:00:26;;;;;;;2.33;2.22;;;10.20;83.90;;;;;;5054970;28;20178;-74
2023/04/20 03:02:51;;;;;;;2.42;2.33;;;10.00;84.60;;;;;;5058357;28;20190;-73
2023/04/20 03:05:17;;;;;;;2.70;2.50;;;9.80;85.30;;;;;;5051346;28;20202;-74
2023/04/20 03:07:43;;;;;;;2.13;2.03;;;9.80;85.50;;;;;;5049188;28;20565;-74
2023/04/20 03:10:09;;;;;;;2.40;2.22;;;9.70;85.80;;;;;;5052946;28;20195;-73
2023/04/20 03:12:35;;;;;;;2.60;2.42;;;9.60;86.10;;;;;;5052656;28;20233;-75
2023/04/20 03:15:03;;;;;;;2.60;2.50;;;9.50;86.30;;;;;;5051491;28;20193;-73
2023/04/20 03:17:28;;;;;;;2.80;2.55;;;9.50;86.30;;;;;;5048273;28;20176;-75
2023/04/20 03:19:55;;;;;;;3.45;2.55;;;9.40;86.30;;;;;;5052386;28;20233;-74
2023/04/20 03:22:21;;;;;;;2.45;2.35;;;9.50;86.30;;;;;;5054163;28;20298;-75
2023/04/20 03:24:46;;;;;;;3.70;3.22;;;9.60;86.00;;;;;;5056672;28;20275;-75
2023/04/20 03:27:13;;;;;;;2.83;2.53;;;9.70;85.80;;;;;;5049160;28;20180;-74
2023/04/20 03:29:38;;;;;;;3.03;2.63;;;9.70;85.50;;;;;;5046532;28;20184;-74
2023/04/20 03:32:04;;;;;;;3.83;2.97;;;9.80;85.20;;;;;;5046554;28;20183;-75
2023/04/20 03:34:30;;;;;;;2.40;2.22;;;9.70;85.20;;;;;;5048385;28;20611;-75
2023/04/20 03:36:56;;;;;;;2.30;2.25;;;9.80;85.20;;;;;;5053336;28;20654;-74
2023/04/20 03:39:22;;;;;;;2.72;2.53;;;9.80;84.80;;;;;;5051396;28;20241;-75
2023/04/20 03:41:48;;;;;;;2.78;2.58;;;10.00;84.50;;;;;;5056599;28;20218;-74
2023/04/20 03:44:14;;;;;;;3.25;2.90;;;10.00;84.60;;;;;;5054984;28;20680;-74
2023/04/20 03:46:39;;;;;;;2.58;2.45;;;9.80;84.60;;;;;;5058162;28;20248;-75
2023/04/20 03:49:05;;;;;;;2.45;2.25;;;9.80;84.50;;;;;;5057188;28;20223;-74
2023/04/20 03:51:31;;;;;;;2.63;2.53;;;10.00;84.40;;;;;;5055170;28;20179;-74
2023/04/20 03:53:57;;;;;;;2.80;2.60;;;9.90;84.50;;;;;;5053308;28;20287;-74
2023/04/20 03:56:23;;;;;;;3.30;3.10;;;9.80;84.50;;;;;;5053956;28;20179;-74
2023/04/20 03:58:48;;;;;;;2.50;2.35;;;9.70;84.80;;;;;;5053335;28;20191;-75
2023/04/20 04:01:14;;;;;;;2.90;2.70;;;9.70;84.90;;;;;;5061212;28;20214;-76
2023/04/20 04:03:40;;;;;;;2.95;2.75;;;9.80;85.00;;;;;;5048064;28;20198;-74
2023/04/20 04:06:08;;;;;;;4.00;3.75;;;9.80;85.00;;;;;;5051935;28;20172;-74
2023/04/20 04:08:34;;;;;;;2.92;2.78;;;9.80;85.00;;;;;;5054672;28;20180;-75
2023/04/20 04:11:00;;;;;;;3.25;3.05;;;9.80;85.20;;;;;;5057565;28;20217;-72
2023/04/20 04:13:25;;;;;;;3.53;2.67;;;9.80;84.90;;;;;;5054339;28;20179;-74
2023/04/20 04:15:51;;;;;;;3.10;2.85;;;9.80;85.00;;;;;;5056956;28;20195;-73
2023/04/20 04:18:17;;;;;;;3.60;3.33;;;9.80;84.60;;;;;;5050419;28;20179;-72
2023/04/20 04:20:42;;;;;;;2.95;2.85;;;9.80;84.70;;;;;;5055248;28;20195;-73
2023/04/20 04:23:08;;;;;;;2.85;2.55;;;9.90;84.50;;;;;;5054093;28;20214;-73
2023/04/20 04:25:37;;;;;;;3.92;3.03;;;9.80;84.50;;;;;;5055308;28;20191;-74
2023/04/20 04:28:03;;;;;;;4.40;3.15;;;9.80;84.10;;;;;;5056126;28;20171;-73
2023/04/20 04:30:28;;;;;;;3.45;2.53;;;9.80;84.40;;;;;;5058414;28;20262;-74
2023/04/20 04:32:54;;;;;;;3.17;2.97;;;9.90;84.30;;;;;;5051994;28;20771;-73
2023/04/20 04:35:20;;;;;;;2.92;2.72;;;10.00;84.10;;;;;;5051130;28;20559;-73
2023/04/20 04:37:46;;;;;;;2.53;2.42;;;10.10;83.90;;;;;;5054271;28;20179;-75
2023/04/20 04:40:12;;;;;;;2.85;2.50;;;10.20;83.60;;;;;;5054662;28;20828;-74
2023/04/20 04:42:38;;;;;;;3.03;2.88;;;10.30;83.10;;;;;;5052888;28;20221;-72
2023/04/20 04:45:04;;;;;;;3.38;2.97;;;10.30;83.00;;;;;;5053172;28;20590;-74
2023/04/20 04:47:34;;;;;;;3.38;3.17;;;10.20;83.10;;;;;;5052841;28;20266;-77
2023/04/20 04:50:02;;;;;;;2.83;2.63;;;10.10;83.30;;;;;;5053126;28;20182;-78
2023/04/20 04:52:28;;;;;;;3.15;2.92;;;10.00;83.60;;;;;;5050664;28;20242;-75
2023/04/20 04:54:53;;;;;;;3.47;3.10;;;10.00;83.70;;;;;;5054632;28;20184;-77
2023/04/20 04:57:19;;;;;;;2.70;2.60;;;10.00;83.70;;;;;;5056544;28;20186;-74
2023/04/20 04:59:45;;;;;;;3.90;2.72;;;9.90;84.00;;;;;;5054694;28;20178;-73
2023/04/20 05:02:10;;;;;;;3.25;3.00;;;10.10;83.80;;;;;;5055292;28;20211;-73
2023/04/20 05:04:36;;;;;;;3.53;3.33;;;10.10;83.80;;;;;;5053622;28;20172;-74
2023/04/20 05:07:02;;;;;;;3.95;3.15;;;10.10;83.80;;;;;;5057820;28;20179;-73
2023/04/20 05:09:32;;;;;;;3.03;2.90;;;10.00;83.90;;;;;;5053474;28;20214;-73
2023/04/20 05:11:59;;;;;;;3.55;2.90;;;10.00;84.20;;;;;;5050088;28;20187;-73
2023/04/20 05:14:25;;;;;;;3.88;3.58;;;10.00;84.30;;;;;;5052248;28;20187;-74
2023/04/20 05:16:51;;;;;;;3.60;3.35;;;10.00;84.20;;;;;;5053377;28;20195;-74
2023/04/20 05:19:17;;;;;;;6.05;3.72;;;10.00;84.30;;;;;;5054645;28;20179;-73
2023/04/20 05:21:43;;;;;;;3.80;3.30;;;10.00;84.10;;;;;;5056522;28;20211;-73
2023/04/20 05:24:08;;;;;;;6.43;3.15;;;10.10;84.10;;;;;;5053777;28;20186;-74
2023/04/20 05:26:34;;;;;;;4.10;3.65;;;10.20;83.80;;;;;;5051414;28;20180;-73
2023/04/20 05:29:00;;;;;;;4.05;3.63;;;10.20;83.70;;;;;;5047725;28;20221;-75
2023/04/20 05:31:26;;;;;;;3.95;2.95;;;10.30;83.50;;;;;;5055981;28;20601;-74
2023/04/20 05:33:52;;;;;;;4.05;3.65;;;10.20;83.50;;;;;;5054372;28;20202;-74
2023/04/20 05:36:17;;;;;;;4.28;3.92;;;10.20;83.70;;;;;;5053783;28;20274;-75
2023/04/20 05:38:43;;;;;;;4.25;3.80;;;10.10;83.90;;;;;;5054028;28;20254;-74
2023/04/20 05:41:09;;;;;;;3.70;3.40;;;10.20;84.00;;;;;;5051642;28;20227;-74
2023/04/20 05:43:35;;;;;;;3.63;3.33;;;10.20;84.00;;;;;;5050691;28;20195;-74
2023/04/20 05:46:00;;;;;;;3.55;3.25;;;10.10;84.10;;;;;;5051093;28;20182;-74
2023/04/20 05:48:26;;;;;;;3.53;3.28;;;10.10;84.40;;;;;;5052879;28;20176;-74
2023/04/20 05:50:52;;;;;;;3.72;3.45;;;10.10;84.70;;;;;;5056065;28;20656;-76
2023/04/20 05:53:18;;;;;;;4.18;3.78;;;10.10;84.90;;;;;;5053871;28;20271;-73
2023/04/20 05:55:44;;;;;;;6.22;3.92;;;10.10;84.90;;;;;;5054333;28;20254;-73
2023/04/20 05:58:10;;;;;;;4.57;3.97;;;10.20;85.00;;;;;;5072055;28;20190;-75
2023/04/20 06:00:36;;;;;;;4.22;3.83;;;10.20;84.90;;;;;;5048160;28;20557;-75
2023/04/20 06:03:02;;;;;;;4.03;3.50;;;10.20;85.00;;;;;;5051560;28;20194;-74
2023/04/20 06:05:28;;;;;;;3.33;3.03;;;10.20;85.10;;;;;;5055959;28;20183;-75
2023/04/20 06:07:53;;;;;;;4.22;3.83;;;10.20;85.40;;;;;;5053663;28;20212;-74
2023/04/20 06:10:19;;;;;;;4.78;3.88;;;10.30;85.20;;;;;;5058884;28;20179;-74
2023/04/20 06:12:46;;;;;;;3.55;3.25;;;10.30;85.80;;;;;;5059581;28;20185;-74
2023/04/20 06:15:12;;;;;;;5.18;4.03;;;10.20;85.90;;;;;;5053507;28;20232;-74
2023/04/20 06:17:39;;;;;;;6.65;3.92;;;10.20;86.60;;;;;;5048286;28;20187;-74
2023/04/20 06:20:07;;;;;;;4.15;3.83;;;10.20;86.90;;;;;;5054198;28;20178;-74
2023/04/20 06:22:33;;;;;;;4.25;3.70;;;10.20;86.30;;;;;;5057316;28;20203;-74
2023/04/20 06:24:59;;;;;;;4.40;4.07;;;10.30;86.20;;;;;;5053784;28;20179;-75
2023/04/20 06:27:25;;;;;;;4.90;4.28;;;10.30;86.00;;;;;;5048007;28;20687;-76
2023/04/20 06:29:51;;;;;;;4.30;3.90;;;10.20;86.50;;;;;;5054511;28;20176;-75
2023/04/20 06:32:17;;;;;;;8.23;4.00;;;10.20;86.10;;;;;;5059689;28;20182;-75
2023/04/20 06:34:42;;;;;;;4.40;3.60;;;10.30;86.00;;;;;;5057316;28;20184;-76
2023/04/20 06:37:08;;;;;;;4.45;4.15;;;10.30;86.10;;;;;;5049263;28;20179;-75
2023/04/20 06:39:34;;;;;;;5.95;3.97;;;10.30;86.10;;;;;;5051654;28;20191;-75
2023/04/20 06:42:01;;;;;;;4.10;3.75;;;10.20;86.10;;;;;;5056340;28;20638;-74
2023/04/20 06:44:27;;;;;;;4.07;3.85;;;10.30;86.10;;;;;;5045505;28;20679;-74
2023/04/20 06:46:53;;;;;;;6.53;3.60;;;10.20;85.80;;;;;;5051776;28;20250;-74
2023/04/20 06:49:18;;;;;;;5.40;3.88;;;10.30;86.00;;;;;;5051338;28;20214;-73
2023/04/20 06:51:44;;;;;;;6.05;4.18;;;10.30;85.90;;;;;;5052588;28;20916;-70
2023/04/20 06:54:10;;;;;;;4.28;3.58;;;10.30;86.30;;;;;;5054121;28;20221;-72
2023/04/20 06:56:35;;;;;;;6.60;3.83;;;10.40;86.60;;;;;;5050396;28;20237;-72
2023/04/20 06:59:01;;;;;;;5.07;4.03;;;10.50;86.80;;;;;;5052075;28;20197;-72
2023/04/20 07:01:27;;;;;;;4.28;3.92;;;10.40;87.20;;;;;;5046891;28;20240;-72
2023/04/20 07:03:52;;;;;;;3.90;3.63;;;10.40;87.30;;;;;;5050356;28;20253;-73
2023/04/20 07:06:18;;;;;;;4.93;4.18;;;10.40;87.30;;;;;;5053426;28;20228;-71
2023/04/20 07:08:44;;;;;;;4.68;4.35;;;10.40;87.60;;;;;;5050888;28;20198;-72
2023/04/20 07:11:09;;;;;;;4.40;3.92;;;10.40;87.70;;;;;;5051494;28;20270;-72
2023/04/20 07:13:35;;;;;;;5.13;3.70;;;10.40;87.30;;;;;;5054540;28;20282;-72
2023/04/20 07:16:01;;;;;;;5.28;4.00;;;10.50;87.30;;;;;;5053516;28;20656;-72
2023/04/20 07:18:27;;;;;;;4.55;4.15;;;10.50;87.20;;;;;;5053962;28;20207;-73
2023/04/20 07:20:53;;;;;;;4.75;4.25;;;10.60;87.40;;;;;;5056036;28;20237;-73
2023/04/20 07:23:19;;;;;;;4.85;4.20;;;10.70;87.50;;;;;;5054269;28;20175;-73
2023/04/20 07:25:44;;;;;;;4.95;4.35;;;10.80;87.10;;;;;;5058287;28;20221;-73
2023/04/20 07:28:10;;;;;;;4.75;4.38;;;11.00;86.30;;;;;;5058985;28;20182;-73
2023/04/20 07:30:36;;;;;;;4.05;3.78;;;11.10;86.20;;;;;;5057723;28;20179;-73
2023/04/20 07:33:01;;;;;;;6.05;4.05;;;11.20;85.00;;;;;;5060618;28;20266;-72
2023/04/20 07:35:27;;;;;;;4.13;3.80;;;11.30;84.50;;;;;;5055524;28;20184;-73
2023/04/20 07:37:53;;;;;;;4.20;3.90;;;11.40;84.40;;;;;;5055016;28;20699;-72
2023/04/20 07:40:18;;;;;;;4.28;3.90;;;11.40;84.00;;;;;;5048321;28;20267;-72
2023/04/20 07:42:44;;;;;;;4.75;3.55;;;11.50;84.00;;;;;;5057324;28;20287;-73
2023/04/20 07:45:11;;;;;;;3.47;3.17;;;11.50;83.60;;;;;;5057276;28;20288;-73
2023/04/20 07:47:37;;;;;;;4.13;3.72;;;11.70;83.10;;;;;;5058555;28;20233;-73
2023/04/20 07:50:06;;;;;;;6.55;3.70;;;11.70;82.20;;;;;;5056013;28;20183;-73
2023/04/20 07:52:32;;;;;;;6.07;3.78;;;11.80;81.90;;;;;;5056962;28;20202;-72
2023/04/20 07:54:58;;;;;;;4.40;3.97;;;12.00;81.90;;;;;;5056660;28;20190;-73
2023/04/20 07:57:25;;;;;;;4.60;4.20;;;12.30;81.20;;;;;;5055073;28;20187;-72
2023/04/20 07:59:51;;;;;;;4.32;4.00;;;12.50;80.10;;;;;;5055691;28;20723;-72
2023/04/20 08:02:17;;;;;;;3.97;3.67;;;12.60;79.10;;;;;;5054803;28;20231;-73
2023/04/20 08:04:47;;;;;;;4.40;4.00;;;12.50;79.50;;;;;;5056760;28;20583;-73
2023/04/20 08:07:13;;;;;;;6.38;4.13;;;12.70;79.00;;;;;;5056928;28;20188;-73
2023/04/20 08:09:38;;;;;;;4.47;4.10;;;12.80;79.10;;;;;;5056389;28;20684;-73
2023/04/20 08:12:04;;;;;;;3.50;3.30;;;13.00;78.10;;;;;;5056164;28;20187;-72
2023/04/20 08:14:30;;;;;;;3.90;3.60;;;13.00;77.70;;;;;;5056156;28;20256;-73
2023/04/20 08:16:56;;;;;;;4.13;3.53;;;13.00;78.30;;;;;;5056983;28;20184;-73
2023/04/20 08:19:22;;;;;;;3.88;3.65;;;13.10;78.10;;;;;;5055614;28;20555;-73
2023/04/20 08:21:49;;;;;;;5.15;4.10;;;13.00;77.10;;;;;;5055633;28;20202;-73
2023/04/20 08:24:15;;;;;;;4.18;3.78;;;12.70;78.20;;;;;;5052759;28;20183;-72
2023/04/20 08:26:42;;;;;;;3.78;3.60;;;12.80;78.40;;;;;;5056491;28;20185;-73
2023/04/20 08:29:07;;;;;;;4.60;4.00;;;12.90;78.30;;;;;;5055790;28;20240;-73
2023/04/20 08:31:33;;;;;;;4.88;3.83;;;13.00;78.00;;;;;;5055171;28;20183;-73
2023/04/20 08:33:59;;;;;;;4.32;3.38;;;12.90;77.90;;;;;;5056714;28;20193;-72
2023/04/20 08:36:25;;;;;;;4.57;3.85;;;12.70;78.40;;;;;;5055451;28;20213;-72
2023/04/20 08:38:55;;;;;;;4.38;3.97;;;12.80;78.60;;;;;;5055493;28;20188;-73
2023/04/20 08:41:21;;;;;;;4.30;4.00;;;12.80;78.00;;;;;;5053663;28;20222;-73
2023/04/20 08:43:48;;;;;;;4.35;4.00;;;12.70;78.60;;;;;;5055095;28;20677;-73
2023/04/20 08:46:16;;;;;;;5.30;4.18;;;12.80;78.40;;;;;;5052353;28;20241;-73
2023/04/20 08:48:45;;;;;;;4.10;3.90;;;12.70;78.00;;;;;;5052600;28;20178;-72
2023/04/20 08:51:11;;;;;;;3.75;3.47;;;12.90;78.20;;;;;;5056822;28;20721;-73
2023/04/20 08:53:36;;;;;;;4.35;3.80;;;12.80;78.30;;;;;;5055346;28;20195;-72
2023/04/20 08:56:02;;;;;;;5.45;4.30;;;12.70;77.70;;;;;;5051065;28;20293;-72
2023/04/20 08:58:33;;;;;;;4.40;4.07;;;12.50;78.50;;;;;;5055608;28;20183;-72
2023/04/20 09:01:00;;;;;;;4.05;3.75;;;12.40;78.80;;;;;;5055994;28;20199;-71
2023/04/20 09:03:37;;;;;;;4.68;4.28;;;12.40;79.00;;;;;;5055411;28;20544;-73
2023/04/20 09:06:13;;;;;;;3.63;3.42;;;12.50;78.80;;;;;;5055552;28;20747;-72
2023/04/20 09:08:41;;;;;;;5.15;3.95;;;12.40;79.10;;;;;;5056382;28;20221;-72
2023/04/20 09:11:19;;;;;;;6.20;4.80;;;12.20;79.30;;;;;;5054915;28;20188;-72
2023/04/20 09:13:55;;;;;;;3.20;3.00;;;12.00;79.50;;;;;;5054332;28;20191;-71
2023/04/20 09:16:21;;;;;;;3.97;3.63;;;11.90;80.00;;;;;;5051796;28;20202;-73
2023/04/20 09:18:54;;;;;;;3.47;3.17;;;12.00;80.00;;;;;;5051791;28;20684;-73
2023/04/20 09:21:21;;;;;;;3.65;3.45;;;12.00;79.80;;;;;;5050762;28;20241;-73
2023/04/20 09:24:05;;;;;;;4.03;3.67;;;12.00;79.80;;;;;;5053661;28;20186;-73
2023/04/20 09:26:33;;;;;;;3.83;3.50;;;12.10;79.80;;;;;;5052550;28;20171;-73
2023/04/20 09:28:59;;;;;;;4.85;4.45;;;12.10;79.90;;;;;;5052775;28;20178;-73
2023/04/20 09:31:25;;;;;;;3.78;3.47;;;12.40;79.70;;;;;;5045853;28;24124;-73
2023/04/20 09:34:01;;;;;;;4.18;3.65;;;12.70;78.90;;;;;;5051836;28;20183;-73
2023/04/20 09:36:45;;;;;;;3.42;2.97;;;13.10;77.50;;;;;;5050880;28;20790;-72
2023/04/20 09:39:21;;;;;;;3.80;3.00;;;13.10;76.90;;;;;;5056525;28;20572;-72
2023/04/20 09:41:47;;;;;;;4.00;3.80;;;13.20;77.20;;;;;;5055294;28;20211;-73
2023/04/20 09:44:15;;;;;;;5.22;3.83;;;13.50;76.60;;;;;;5053997;28;20184;-72
2023/04/20 09:46:42;;;;;;;4.00;3.75;;;13.90;75.50;;;;;;5055591;28;20171;-72
2023/04/20 09:49:10;;;;;;;3.78;3.55;;;14.30;74.70;;;;;;5052882;28;20218;-73
2023/04/20 09:51:38;;;;;;;3.65;3.45;;;14.40;73.20;;;;;;5058359;28;20187;-73
2023/04/20 09:54:05;;;;;;;4.20;3.80;;;14.40;73.70;;;;;;5052716;28;20194;-72
2023/04/20 09:56:33;;;;;;;3.53;3.33;;;14.90;73.40;;;;;;5050161;28;20575;-73
2023/04/20 09:58:59;;;;;;;4.35;3.95;;;15.30;71.40;;;;;;5049980;28;20187;-73
2023/04/20 10:01:28;;;;;;;4.40;4.10;;;15.40;71.20;;;;;;5045597;28;20203;-73
2023/04/20 10:03:54;;;;;;;4.15;3.88;;;15.40;71.00;;;;;;5054910;28;20251;-73
2023/04/20 10:06:23;;;;;;;4.38;3.97;;;15.40;71.60;;;;;;5048459;28;20624;-73
2023/04/20 10:08:50;;;;;;;4.30;4.00;;;15.60;71.50;;;;;;5049779;28;20233;-73
2023/04/20 10:11:40;;;;;;;5.25;4.45;;;15.80;70.60;;;;;;5050192;28;20207;-73
2023/04/20 10:14:23;;;;;;;4.53;4.07;;;16.10;69.80;;;;;;5055770;28;20277;-72
2023/04/20 10:17:28;;;;;;;5.40;4.50;;;16.60;68.70;;;;;;5049390;28;20190;-73
2023/04/20 10:19:54;;;;;;;4.32;3.88;;;16.60;67.90;;;;;;5034300;28;20298;-73
2023/04/20 10:22:31;;;;;;;5.05;4.47;;;16.40;68.00;;;;;;5054395;28;20361;-73
2023/04/20 10:24:58;;;;;;;3.80;3.58;;;16.60;68.60;;;;;;5053048;28;20579;-73
2023/04/20 10:27:24;;;;;;;4.88;4.53;;;17.00;67.50;;;;;;5049053;28;20238;-73
2023/04/20 10:29:50;;;;;;;4.97;4.55;;;17.40;67.20;;;;;;5054567;28;20179;-72
2023/04/20 10:32:27;;;;;;;4.18;3.88;;;17.60;66.10;;;;;;5051730;28;20179;-73
2023/04/20 10:35:05;;;;;;;4.57;4.18;;;17.70;65.80;;;;;;5049637;28;20621;-72
2023/04/20 10:37:31;;;;;;;4.75;4.43;;;18.00;65.70;;;;;;5058858;28;20679;-73
2023/04/20 10:39:57;;;;;;;3.47;3.28;;;19.10;64.40;;;;;;5053318;28;20214;-73
2023/04/20 10:42:22;;;;;;;4.07;3.85;;;20.30;62.20;;;;;;5051712;28;20211;-73
2023/04/20 10:44:52;;;;;;;4.55;4.20;;;21.10;59.80;;;;;;5054651;28;20186;-73
2023/04/20 10:47:33;;;;;;;4.28;3.97;;;20.60;59.20;;;;;;5051734;28;20186;-73
2023/04/20 10:50:13;;;;;;;4.07;3.88;;;21.10;59.80;;;;;;5054502;28;20182;-74
2023/04/20 10:52:41;;;;;;;3.80;3.50;;;22.10;57.30;;;;;;5055243;28;20183;-73
2023/04/20 10:55:20;;;;;;;4.63;4.22;;;22.90;56.50;;;;;;5053453;28;20179;-73
2023/04/20 10:57:47;;;;;;;3.88;3.60;;;23.30;56.50;;;;;;5051669;28;20193;-74
2023/04/20 11:00:20;;;;;;;3.97;3.58;;;23.70;55.20;;;;;;5045550;28;20856;-74
2023/04/20 11:02:55;;;;;;;4.28;3.92;;;24.10;54.00;;;;;;5048022;28;20245;-73
2023/04/20 11:05:22;;;;;;;3.70;3.50;;;23.70;53.70;;;;;;5054794;28;20182;-74
2023/04/20 11:08:00;;;;;;;4.45;4.18;;;23.00;54.70;;;;;;5048356;28;20211;-73
2023/04/20 11:10:39;;;;;;;3.78;3.58;;;22.60;55.90;;;;;;5050122;28;20183;-73
2023/04/20 11:13:06;;;;;;;3.55;3.00;;;22.90;55.90;;;;;;5050653;28;20183;-72
2023/04/20 11:15:33;;;;;;;3.67;3.47;;;23.50;55.60;;;;;;5050721;28;20194;-74
2023/04/20 11:18:11;;;;;;;4.20;3.83;;;24.20;54.40;;;;;;5050622;28;20213;-73
2023/04/20 11:20:48;;;;;;;3.92;3.70;;;23.60;53.50;;;;;;5053187;28;20724;-73
2023/04/20 11:23:13;;;;;;;4.53;4.22;;;22.60;55.40;;;;;;5053688;28;20182;-73
2023/04/20 11:25:49;;;;;;;3.50;3.30;;;21.30;57.80;;;;;;5054161;28;21037;-73
2023/04/20 11:28:15;;;;;;;4.45;4.00;;;20.30;57.80;;;;;;5051199;28;20194;-73
2023/04/20 11:30:41;;;;;;;3.60;3.40;;;18.80;61.30;;;;;;5048884;28;20637;-73
2023/04/20 11:33:07;;;;;;;4.07;3.83;;;18.10;62.80;;;;;;5045804;28;20210;-73
2023/04/20 11:35:41;;;;;;;3.58;3.38;;;17.70;63.90;;;;;;5057275;28;20205;-73
2023/04/20 11:38:07;;;;;;;3.75;3.60;;;17.50;64.90;;;;;;5042478;28;20172;-72
2023/04/20 11:40:33;;;;;;;5.05;4.20;;;17.60;64.50;;;;;;5077775;28;20209;-74
2023/04/20 11:42:59;;;;;;;3.60;3.40;;;17.60;64.60;;;;;;5049939;28;20664;-73
2023/04/20 11:45:26;;;;;;;3.92;3.72;;;17.50;64.90;;;;;;5046038;28;20280;-73
2023/04/20 11:47:55;;;;;;;2.97;2.78;;;17.60;64.90;;;;;;5050542;28;20241;-72
2023/04/20 11:50:21;;;;;;;3.22;3.05;;;17.50;63.60;;;;;;5047123;28;20271;-74
2023/04/20 11:52:47;;;;;;;3.55;3.35;;;17.20;64.00;;;;;;5048459;28;20187;-73
2023/04/20 11:55:14;;;;;;;3.70;2.88;;;17.30;64.40;;;;;;5045780;28;20612;-74
2023/04/20 11:57:39;;;;;;;3.72;3.42;;;17.40;64.60;;;;;;5046728;28;20674;-73
2023/04/20 12:00:06;;;;;;;3.08;2.95;;;17.80;64.20;;;;;;5049745;28;20190;-73
2023/04/20 12:02:31;;;;;;;3.65;3.35;;;18.20;63.80;;;;;;5052080;28;20230;-71
2023/04/20 12:05:00;;;;;;;3.13;3.00;;;18.20;62.80;;;;;;5052882;28;20183;-72
2023/04/20 12:07:26;;;;;;;3.13;3.03;;;17.80;63.50;;;;;;5052642;28;20172;-72
2023/04/20 12:09:52;;;;;;;3.25;3.13;;;17.30;64.50;;;;;;5056689;28;20177;-72
2023/04/20 12:12:18;;;;;;;3.63;3.38;;;16.80;65.60;;;;;;5049598;28;20179;-72
2023/04/20 12:14:44;;;;;;;3.92;3.72;;;16.30;67.00;;;;;;5053760;28;20622;-72
2023/04/20 12:17:10;;;;;;;3.92;3.65;;;16.30;67.50;;;;;;5053983;28;20182;-72
2023/04/20 12:19:35;;;;;;;3.20;2.95;;;16.30;67.70;;;;;;5056322;28;20301;-72
2023/04/20 12:22:02;;;;;;;3.42;3.22;;;16.00;68.40;;;;;;5054839;28;20306;-72
2023/04/20 12:24:28;;;;;;;3.40;3.30;;;16.00;68.70;;;;;;5056557;28;20171;-72
2023/04/20 12:26:54;;;;;;;3.53;3.40;;;15.70;69.30;;;;;;5055362;28;20230;-72
2023/04/20 12:29:20;;;;;;;3.47;3.28;;;15.50;69.80;;;;;;5060968;28;20199;-72
2023/04/20 12:31:45;;;;;;;3.42;3.13;;;15.60;70.10;;;;;;5056578;28;20196;-72
2023/04/20 12:34:11;;;;;;;3.38;3.20;;;15.40;70.20;;;;;;5055961;28;20242;-71
2023/04/20 12:36:37;;;;;;;2.95;2.80;;;15.40;70.30;;;;;;5052012;28;20184;-72
2023/04/20 12:39:03;;;;;;;3.22;3.10;;;15.60;70.10;;;;;;5054483;28;21052;-71
2023/04/20 12:41:29;;;;;;;3.22;3.10;;;15.50;70.00;;;;;;5051905;28;20199;-71
2023/04/20 12:43:55;;;;;;;3.25;3.05;;;15.70;69.90;;;;;;5052760;28;20175;-71
2023/04/20 12:46:20;;;;;;;3.30;3.08;;;15.90;68.90;;;;;;5052541;28;20182;-73